CW8398 Stockholm SE current weather conditions

sailwx.info

Wind from 231 at 0 knots gusting 4

Air temperature 1.7° C
Dewpoint -4.2° C

Last reported at 2020-Feb-24 17:03 UTC.
Time now 2020-Feb-24 17:49 UTC

Location: N 59°22' E 018°39'.
View on Google Maps.

See reports from other nearby stations

  
Tides and Currents Weather Stations Pressure Air Temp Water Temp Dewpoint Dewpoint Depression Visibility Wind Speed Wind Dir Waves Ship Positions
date/time (UTC)wind fromknots sea level pressurealtimeterstation pressurevisibilityair tempwater tempwave heightnotes
2020-Feb-24 17:03 231 0 gusting 4 1.7
2020-Feb-24 16:58 230 1.7
2020-Feb-24 16:48 229 0 gusting 2 2.2
2020-Feb-24 16:38 251 2.8
2020-Feb-24 16:33 264 2.8
2020-Feb-24 16:28 253 2.8
2020-Feb-24 16:23 261 3.3
2020-Feb-24 16:18 244 0 gusting 2 3.3
2020-Feb-24 16:13 259 3.3
2020-Feb-24 15:58 267 0 gusting 2 3.9
2020-Feb-24 15:43 255 3.9
2020-Feb-24 15:38 244 0 gusting 6 3.9
2020-Feb-24 15:28 240 0 gusting 7 3.9
2020-Feb-24 15:23 237 2 gusting 10 4.4
2020-Feb-24 15:18 240 0 gusting 7 4.4
2020-Feb-24 15:08 254 1 gusting 6 4.4
2020-Feb-24 15:03 222 0 gusting 5 4.4
2020-Feb-24 14:48 286 5.0
2020-Feb-24 14:38 237 0 gusting 6 5.0
2020-Feb-24 14:28 251 3 gusting 12 5.0
2020-Feb-24 14:23 258 2 gusting 6 5.0
2020-Feb-24 14:18 244 2 gusting 7 5.6
2020-Feb-24 14:13 269 0 gusting 10 5.6
2020-Feb-24 13:28 286 1 gusting 10 5.6
2020-Feb-24 13:23 277 1 gusting 10 5.6
2020-Feb-24 13:18 276 6 gusting 13 5.0
2020-Feb-24 13:13 283 2 gusting 12 5.6
2020-Feb-24 13:08 278 2 gusting 12 5.0
2020-Feb-24 13:03 226 4 gusting 12 5.0
2020-Feb-24 12:58 268 4 gusting 15 5.6
2020-Feb-24 12:53 250 4 gusting 15 5.6
2020-Feb-24 12:48 250 2 gusting 13 5.6
2020-Feb-24 12:43 273 0 gusting 13 5.6
2020-Feb-24 12:33 284 0 gusting 13 5.6
2020-Feb-24 12:28 269 1 gusting 17 5.6
2020-Feb-24 12:23 249 1 gusting 12 5.6
2020-Feb-24 12:18 254 4 gusting 13 5.6
2020-Feb-24 12:13 256 2 gusting 10 5.6
2020-Feb-24 12:08 266 1 gusting 7 5.6
2020-Feb-24 12:03 226 1 gusting 11 5.6
2020-Feb-24 11:58 244 1 gusting 13 5.6
2020-Feb-24 11:48 263 1 gusting 13 5.6
2020-Feb-24 11:43 299 5 gusting 13 5.0
2020-Feb-24 11:38 264 2 gusting 13 5.0
2020-Feb-24 11:33 275 1 gusting 10 5.0
2020-Feb-24 11:28 300 5 gusting 15 5.0
2020-Feb-24 11:23 282 5 gusting 17 5.0
2020-Feb-24 11:18 287 4 gusting 13 5.0
2020-Feb-24 11:08 264 3 gusting 14 5.0
2020-Feb-24 11:03 254 6 gusting 19 5.0
2020-Feb-24 10:58 318 4 gusting 15 5.0
2020-Feb-24 10:53 286 3 gusting 15 5.0
2020-Feb-24 10:48 274 6 gusting 14 5.0
2020-Feb-24 10:43 281 4 gusting 14 4.4
2020-Feb-24 10:38 342 3 gusting 13 4.4
2020-Feb-24 10:33 273 6 gusting 17 4.4
2020-Feb-24 10:28 283 1 gusting 12 4.4
2020-Feb-24 10:23 284 2 gusting 12 3.9
2020-Feb-24 10:18 285 1 gusting 14 3.9
2020-Feb-24 10:08 254 3 gusting 13 3.9
2020-Feb-24 10:03 269 9 gusting 14 3.9
2020-Feb-24 09:53 277 5 gusting 14 3.9
2020-Feb-24 09:48 288 2 gusting 13 3.9
2020-Feb-24 09:38 303 4 gusting 14 3.9
2020-Feb-24 09:28 273 6 gusting 17 3.9
2020-Feb-24 09:18 273 3 gusting 13 3.9
2020-Feb-24 09:08 280 8 gusting 15 3.9
2020-Feb-24 09:03 301 5 gusting 14 3.3
2020-Feb-24 08:53 293 1 gusting 13 3.3
2020-Feb-24 08:48 288 5 gusting 14 3.3
2020-Feb-24 08:43 319 3 gusting 10 2.8
2020-Feb-24 08:38 337 2 gusting 13 2.8
2020-Feb-24 08:33 246 6 gusting 14 2.8
2020-Feb-24 08:28 306 2 gusting 10 2.8
2020-Feb-24 08:23 2.8
2020-Feb-24 08:18 295 2 gusting 10 2.8
2020-Feb-24 08:13 291 3 gusting 13 2.8
2020-Feb-24 07:53 230 6 gusting 21 2.2
2020-Feb-24 07:48 299 7 gusting 17 2.2
2020-Feb-24 07:43 280 5 gusting 18 2.2
2020-Feb-24 07:38 315 8 gusting 17 2.2
2020-Feb-24 07:33 286 4 gusting 11 1.7
2020-Feb-24 07:28 236 6 gusting 13 1.7
2020-Feb-24 07:23 319 5 gusting 13 1.7
2020-Feb-24 07:18 286 7 gusting 14 1.7
2020-Feb-24 07:13 282 5 gusting 11 1.7
2020-Feb-24 07:08 200 2 gusting 12 1.7
2020-Feb-24 07:03 297 5 gusting 14 1.7
2020-Feb-24 06:58 348 5 gusting 14 1.7
2020-Feb-24 06:48 287 8 gusting 14 1.7
2020-Feb-24 06:43 303 6 gusting 19 1.7
2020-Feb-24 06:38 269 9 gusting 19 1.7
2020-Feb-24 06:23 005 3 gusting 13 1.7
2020-Feb-24 06:18 274 2 gusting 17 1.7
2020-Feb-24 06:13 285 6 gusting 14 1.7
2020-Feb-24 06:03 294 2 gusting 13 1.7
2020-Feb-24 05:48 272 1 gusting 11 1.7
2020-Feb-24 05:43 282 5 gusting 17 1.7
2020-Feb-24 05:33 265 8 gusting 17 1.7
2020-Feb-24 05:28 321 6 gusting 15 1.7
2020-Feb-24 05:13 341 5 gusting 14 1.7
2020-Feb-24 05:08 285 5 gusting 14 1.7
2020-Feb-24 05:03 268 5 gusting 15 1.7
2020-Feb-24 04:58 287 8 gusting 18 1.7
2020-Feb-24 04:53 280 8 gusting 22 1.7
2020-Feb-24 04:38 323 5 gusting 17 1.7
2020-Feb-24 04:33 271 8 gusting 19 1.7
2020-Feb-24 04:23 278 6 gusting 17 1.7
2020-Feb-24 04:18 241 6 gusting 17 1.1
2020-Feb-24 04:03 261 2 gusting 15 1.1
2020-Feb-24 03:43 253 1 gusting 11 1.1
2020-Feb-24 03:38 259 4 gusting 11 1.7
2020-Feb-24 03:33 250 1 gusting 15 1.7
2020-Feb-24 03:13 283 1 gusting 11 1.7
2020-Feb-24 03:08 291 2 gusting 10 1.7
2020-Feb-24 02:58 329 1 gusting 10 1.7
2020-Feb-24 02:48 302 1 gusting 11 1.7
2020-Feb-24 02:43 334 6 gusting 13 1.7
2020-Feb-24 02:38 298 6 gusting 17 1.7
2020-Feb-24 02:28 290 2 gusting 13 1.7
2020-Feb-24 02:13 305 4 gusting 13 1.7
2020-Feb-24 01:53 325 2 gusting 11 2.2
2020-Feb-24 01:48 325 3 gusting 11 2.2
2020-Feb-24 01:38 321 6 gusting 15 2.2
2020-Feb-24 01:33 338 8 gusting 15 2.2
2020-Feb-24 01:28 332 6 gusting 13 2.2
2020-Feb-24 01:23 297 4 gusting 17 2.2
2020-Feb-24 01:18 315 6 gusting 13 2.2
2020-Feb-24 01:08 316 6 gusting 17 2.2
2020-Feb-24 00:53 346 5 gusting 14 2.2
2020-Feb-24 00:43 333 7 gusting 12 2.2
2020-Feb-24 00:38 336 6 gusting 14 2.2
2020-Feb-24 00:33 358 1 gusting 13 2.8
2020-Feb-24 00:28 327 4 gusting 13 2.8
2020-Feb-24 00:23 340 5 gusting 13 2.8
2020-Feb-24 00:13 2.8
2020-Feb-24 00:08 319 8 gusting 11 2.8
2020-Feb-24 00:03 314 2 gusting 12 2.8
2020-Feb-23 23:53 346 2 gusting 13 2.8
2020-Feb-23 23:43 322 2 gusting 11 2.8
2020-Feb-23 23:33 262 2 gusting 11 2.8
2020-Feb-23 23:23 315 3 gusting 12 2.8
2020-Feb-23 23:08 284 2 gusting 10 2.8
2020-Feb-23 22:58 290 2 gusting 12 2.8
2020-Feb-23 22:53 269 1 gusting 12 2.8
2020-Feb-23 22:48 285 4 gusting 13 2.8
2020-Feb-23 22:43 265 3 gusting 13 2.8
2020-Feb-23 22:33 287 1 gusting 13 2.8
2020-Feb-23 22:28 280 1 gusting 11 2.8
2020-Feb-23 22:23 254 2 gusting 10 2.8
2020-Feb-23 22:18 290 1 gusting 11 2.8
2020-Feb-23 22:13 260 4 gusting 10 2.8
2020-Feb-23 22:08 259 1 gusting 12 2.8
2020-Feb-23 22:03 276 0 gusting 8 2.8
2020-Feb-23 21:58 300 0 gusting 10 2.8
2020-Feb-23 21:53 293 1 gusting 5 2.8
2020-Feb-23 21:48 270 1 gusting 6 2.8
2020-Feb-23 21:43 267 0 gusting 6 2.8
2020-Feb-23 21:33 269 2.8
2020-Feb-23 21:28 248 0 gusting 6 2.8
2020-Feb-23 21:23 230 0 gusting 6 2.8
2020-Feb-23 21:18 267 2 gusting 7 2.8
2020-Feb-23 21:08 254 0 gusting 2 2.8
2020-Feb-23 20:58 246 0 gusting 2 2.8
2020-Feb-23 20:53 273 0 gusting 2 2.8
2020-Feb-23 20:48 240 2.8
2020-Feb-23 20:43 282 3.3
2020-Feb-23 20:33 259 0 gusting 2 3.3
2020-Feb-23 20:28 241 0 gusting 4 3.3
2020-Feb-23 20:23 255 3.3
2020-Feb-23 20:13 263 0 gusting 5 3.9
2020-Feb-23 20:08 293 3.9
2020-Feb-23 20:03 265 0 gusting 5 3.9
2020-Feb-23 19:58 284 0 gusting 10 3.9
2020-Feb-23 19:53 287 1 gusting 11 3.9
2020-Feb-23 19:48 273 1 gusting 8 3.9
2020-Feb-23 19:38 275 2 gusting 10 3.9
2020-Feb-23 19:33 233 1 gusting 10 4.4
2020-Feb-23 19:28 287 1 gusting 10 4.4
2020-Feb-23 19:23 287 3 gusting 12 4.4
2020-Feb-23 19:18 276 0 gusting 6 4.4
2020-Feb-23 19:13 338 0 gusting 10 4.4
2020-Feb-23 19:08 275 0 gusting 6 4.4
2020-Feb-23 18:53 286 0 gusting 6 4.4
2020-Feb-23 18:48 263 0 gusting 6 4.4
2020-Feb-23 18:33 269 0 gusting 6 4.4
2020-Feb-23 18:28 265 0 gusting 7 5.0
2020-Feb-23 18:23 278 0 gusting 12 5.0
2020-Feb-23 18:18 294 0 gusting 10 5.0
2020-Feb-23 18:13 273 0 gusting 12 5.0
2020-Feb-23 18:08 277 0 gusting 7 5.0
2020-Feb-23 18:03 257 0 gusting 6 5.0
2020-Feb-23 17:58 261 1 gusting 10 5.0
2020-Feb-23 17:53 250 0 gusting 10 5.0
2020-Feb-23 17:38 274 0 gusting 6 5.0
2020-Feb-23 17:18 273 1 gusting 10 5.6
2020-Feb-23 17:13 265 2 gusting 10 5.6
2020-Feb-23 16:58 250 2 gusting 12 5.6
2020-Feb-23 16:53 261 0 gusting 8 5.6
2020-Feb-23 16:48 265 0 gusting 10 5.6
2020-Feb-23 16:43 276 4 gusting 11 5.6
2020-Feb-23 16:38 299 1 gusting 6 5.6
2020-Feb-23 16:28 267 2 gusting 12 6.1
2020-Feb-23 16:13 269 3 gusting 10 6.1
2020-Feb-23 16:08 256 0 gusting 7 6.1
2020-Feb-23 16:03 241 0 gusting 10 6.1
2020-Feb-23 15:58 248 0 gusting 11 6.1
2020-Feb-23 15:48 240 1 gusting 10 6.7
2020-Feb-23 15:43 283 2 gusting 14 6.7
2020-Feb-23 15:38 251 1 gusting 17 6.7
2020-Feb-23 15:33 257 1 gusting 12 6.7
2020-Feb-23 15:23 279 2 gusting 18 6.7
2020-Feb-23 15:18 256 5 gusting 14 7.2
2020-Feb-23 15:08 235 6 gusting 14 7.2
2020-Feb-23 15:03 261 4 gusting 17 7.2
2020-Feb-23 14:58 250 6 gusting 22 7.2
2020-Feb-23 14:53 260 7 gusting 14 7.2
2020-Feb-23 14:48 277 6 gusting 17 7.2
2020-Feb-23 14:38 259 1 gusting 17 7.8
2020-Feb-23 14:33 262 6 gusting 20 7.8
2020-Feb-23 14:28 287 5 gusting 17 7.8
2020-Feb-23 14:18 261 2 gusting 13 7.8
2020-Feb-23 14:08 236 5 gusting 17 7.8
2020-Feb-23 14:03 285 5 gusting 18 7.8
2020-Feb-23 13:58 259 6 gusting 17 7.8
2020-Feb-23 13:48 247 2 gusting 15 7.8
2020-Feb-23 13:38 319 5 gusting 21 7.8
2020-Feb-23 13:33 265 3 gusting 13 7.8
2020-Feb-23 13:18 232 4 gusting 13 7.8
2020-Feb-23 13:08 267 6 gusting 17 7.8
2020-Feb-23 12:58 240 7 gusting 19 7.8
2020-Feb-23 12:53 271 8 gusting 20 7.8
2020-Feb-23 12:48 261 5 gusting 21 7.8
2020-Feb-23 12:38 264 10 gusting 24 7.8
2020-Feb-23 12:33 231 4 gusting 17 7.8
2020-Feb-23 12:28 261 9 gusting 22 7.8
2020-Feb-23 12:23 222 6 gusting 20 7.8
2020-Feb-23 12:18 228 11 gusting 28 7.8
2020-Feb-23 12:03 250 6 gusting 22 7.8
2020-Feb-23 11:58 260 10 gusting 20 7.8
2020-Feb-23 11:53 341 12 gusting 26 7.8
2020-Feb-23 11:43 269 7 gusting 22 7.8
2020-Feb-23 11:38 290 8 gusting 34 7.8
2020-Feb-23 11:28 249 4 gusting 24 7.8
2020-Feb-23 11:18 286 8 gusting 19 7.8
2020-Feb-23 11:13 255 6 gusting 17 7.8
2020-Feb-23 11:08 237 6 gusting 22 7.8
2020-Feb-23 11:03 245 7 gusting 21 7.8
2020-Feb-23 10:58 254 6 gusting 21 7.8
2020-Feb-23 10:53 242 4 gusting 19 7.8
2020-Feb-23 10:48 322 7 gusting 22 7.8
2020-Feb-23 10:43 258 7 gusting 17 7.8
2020-Feb-23 10:38 268 6 gusting 19 7.8
2020-Feb-23 10:33 205 10 gusting 22 7.8
2020-Feb-23 10:18 261 8 gusting 22 7.2
2020-Feb-23 10:13 262 7 gusting 27 7.2
2020-Feb-23 10:03 284 6 gusting 17 7.2
2020-Feb-23 09:58 265 12 gusting 18 7.2
2020-Feb-23 09:53 265 10 gusting 21 7.2
2020-Feb-23 09:48 256 6 gusting 21 7.2
2020-Feb-23 09:43 259 12 gusting 26 7.2
2020-Feb-23 09:38 268 4 gusting 22 7.2
2020-Feb-23 09:33 219 6 gusting 22 6.7
2020-Feb-23 09:18 349 7 gusting 25 6.7
2020-Feb-23 09:08 277 13 gusting 26 6.7
2020-Feb-23 09:03 277 8 gusting 24 6.7
2020-Feb-23 08:58 261 8 gusting 26 6.7
2020-Feb-23 08:53 026 5 gusting 18 6.7
2020-Feb-23 08:48 355 12 gusting 25 6.7
2020-Feb-23 08:43 317 5 gusting 19 6.7
2020-Feb-23 08:38 211 10 gusting 30 6.7
2020-Feb-23 08:28 259 10 gusting 19 6.7
2020-Feb-23 08:23 292 6 gusting 26 6.7
2020-Feb-23 08:18 251 5 gusting 24 6.7
2020-Feb-23 08:13 241 9 gusting 22 6.7
2020-Feb-23 08:08 246 7 gusting 25 6.7
2020-Feb-23 08:03 256 6 gusting 25 6.1
2020-Feb-23 07:58 267 11 gusting 25 6.1
2020-Feb-23 07:53 258 12 gusting 25 6.1
2020-Feb-23 07:48 198 7 gusting 22 6.1
2020-Feb-23 07:43 259 6 gusting 20 6.1
2020-Feb-23 07:38 248 9 gusting 26 6.7
2020-Feb-23 07:28 271 13 gusting 30 6.1
2020-Feb-23 07:23 249 8 gusting 22 6.1
2020-Feb-23 07:18 248 7 gusting 22 6.1
2020-Feb-23 07:13 300 9 gusting 26 6.1
2020-Feb-23 07:08 259 6 gusting 21 6.1
2020-Feb-23 06:58 270 8 gusting 30 6.1
2020-Feb-23 06:48 292 7 gusting 22 5.6
2020-Feb-23 06:43 233 7 gusting 19 5.6
2020-Feb-23 06:38 270 7 gusting 18 5.6
2020-Feb-23 06:33 208 5 gusting 18 5.6
2020-Feb-23 06:23 258 8 gusting 19 5.0
2020-Feb-23 06:18 194 5 gusting 21 5.0
2020-Feb-23 06:13 248 5 gusting 15 5.0
2020-Feb-23 06:03 276 5 gusting 18 5.0
2020-Feb-23 05:58 212 4 gusting 15 5.0
2020-Feb-23 05:53 279 4 gusting 14 5.0
2020-Feb-23 05:48 284 4 gusting 22 5.0
2020-Feb-23 05:38 233 6 gusting 19 5.0
2020-Feb-23 05:33 257 6 gusting 26 5.0
2020-Feb-23 05:28 243 2 gusting 21 5.6
2020-Feb-23 05:23 248 6 gusting 22 5.0
2020-Feb-23 05:18 228 6 gusting 20 5.0
2020-Feb-23 05:08 213 3 gusting 17 5.0
2020-Feb-23 05:03 258 3 gusting 18 5.0
2020-Feb-23 04:58 256 5 gusting 17 5.0
2020-Feb-23 04:48 246 6 gusting 17 5.0
2020-Feb-23 04:43 222 7 gusting 19 5.0
2020-Feb-23 04:38 234 10 gusting 24 5.0
2020-Feb-23 04:28 243 10 gusting 22 5.6
2020-Feb-23 04:23 221 1 gusting 24 5.6
2020-Feb-23 04:18 222 8 gusting 22 5.6
2020-Feb-23 04:13 217 2 gusting 13 5.6
2020-Feb-23 04:08 218 8 gusting 19 5.6
2020-Feb-23 03:58 232 4 gusting 18 5.6
2020-Feb-23 03:53 220 8 gusting 22 5.6
2020-Feb-23 03:48 209 3 gusting 20 5.0
2020-Feb-23 03:43 234 5 gusting 17 5.0
2020-Feb-23 03:38 232 8 gusting 28 5.0
2020-Feb-23 03:33 215 7 gusting 19 5.0
2020-Feb-23 03:28 209 7 gusting 15 5.0
2020-Feb-23 03:23 209 6 gusting 17 5.0
2020-Feb-23 03:13 216 5 gusting 15 5.0
2020-Feb-23 03:08 226 2 gusting 17 5.0
2020-Feb-23 03:03 235 7 gusting 17 5.0
2020-Feb-23 02:58 229 8 gusting 21 5.0
2020-Feb-23 02:48 231 4 gusting 18 5.0
2020-Feb-23 02:43 240 8 gusting 22 5.0
2020-Feb-23 02:33 220 6 gusting 18 4.4
2020-Feb-23 02:28 225 1 gusting 13 4.4
2020-Feb-23 02:23 221 5 gusting 19 4.4
2020-Feb-23 02:18 227 5 gusting 17 4.4
2020-Feb-23 02:13 229 2 gusting 17 4.4
2020-Feb-23 02:08 210 3 gusting 17 4.4
2020-Feb-23 02:03 215 5 gusting 19 4.4
2020-Feb-23 01:58 234 2 gusting 17 4.4
2020-Feb-23 01:48 234 11 gusting 26 4.4
2020-Feb-23 01:33 165 6 gusting 19 4.4
2020-Feb-23 01:23 204 3 gusting 17 4.4
2020-Feb-23 01:13 214 3 gusting 19 4.4
2020-Feb-23 00:58 252 6 gusting 18 4.4
2020-Feb-23 00:53 227 3 gusting 15 4.4
2020-Feb-23 00:48 237 9 gusting 22 4.4
2020-Feb-23 00:38 215 11 gusting 19 4.4
2020-Feb-23 00:33 256 10 gusting 22 4.4
2020-Feb-23 00:18 231 8 gusting 19 4.4
2020-Feb-23 00:13 209 7 gusting 20 4.4
2020-Feb-23 00:08 231 6 gusting 24 4.4
2020-Feb-23 00:03 220 6 gusting 22 4.4
2020-Feb-22 23:58 234 8 gusting 19 4.4
2020-Feb-22 23:53 215 9 gusting 20 4.4
2020-Feb-22 23:48 227 11 gusting 24 4.4
2020-Feb-22 23:38 242 10 gusting 19 4.4
2020-Feb-22 23:33 225 10 gusting 22 4.4
2020-Feb-22 23:28 227 5 gusting 21 4.4
2020-Feb-22 23:23 219 4 gusting 19 4.4
2020-Feb-22 23:18 219 6 gusting 26 4.4
2020-Feb-22 23:13 250 8 gusting 21 5.0
2020-Feb-22 22:58 244 7 gusting 22 5.0
2020-Feb-22 22:48 247 12 gusting 24 5.0
2020-Feb-22 22:18 245 6 gusting 24 5.0
2020-Feb-22 22:08 237 6 gusting 26 5.0
2020-Feb-22 22:03 281 4 gusting 22 5.0
2020-Feb-22 21:58 248 8 gusting 22 5.0
2020-Feb-22 21:53 220 7 gusting 17 5.0
2020-Feb-22 21:48 242 7 gusting 22 5.0
2020-Feb-22 21:43 233 7 gusting 25 5.0
2020-Feb-22 21:38 251 7 gusting 21 5.0
2020-Feb-22 21:33 174 5 gusting 19 5.0
2020-Feb-22 21:23 266 10 gusting 20 5.0
2020-Feb-22 21:08 205 11 gusting 26 5.0
2020-Feb-22 20:58 194 10 gusting 26 5.0
2020-Feb-22 20:48 247 6 gusting 26 5.0
2020-Feb-22 20:43 249 7 gusting 21 5.0
2020-Feb-22 20:38 228 8 gusting 21 5.0
2020-Feb-22 20:33 229 8 gusting 26 5.6
2020-Feb-22 20:28 257 8 gusting 19 5.6
2020-Feb-22 20:18 227 5 gusting 30 5.6
2020-Feb-22 20:08 225 6 gusting 22 5.6
2020-Feb-22 20:03 277 12 gusting 28 5.6
2020-Feb-22 19:33 245 6 gusting 18 5.6
2020-Feb-22 19:28 228 9 gusting 27 6.1
2020-Feb-22 19:18 254 7 gusting 25 6.1
2020-Feb-22 19:13 244 14 gusting 37 6.1
2020-Feb-22 19:08 165 7 gusting 21 6.1
2020-Feb-22 19:03 250 8 gusting 22 6.1
2020-Feb-22 18:53 231 10 gusting 26 6.1
2020-Feb-22 18:48 243 11 gusting 27 6.1
2020-Feb-22 18:38 265 13 gusting 27 6.1
2020-Feb-22 18:33 233 12 gusting 30 6.1
2020-Feb-22 18:23 225 12 gusting 24 6.1
2020-Feb-22 18:18 237 10 gusting 30 6.1
2020-Feb-22 18:08 262 7 gusting 35 6.1
2020-Feb-22 18:03 241 11 gusting 35 6.1
2020-Feb-22 17:53 231 8 gusting 27 6.7
2020-Feb-22 17:48 246 8 gusting 31 6.7
2020-Feb-22 17:43 240 10 gusting 25 6.7
2020-Feb-22 17:38 217 4 gusting 13 6.7
2020-Feb-22 17:33 231 6 gusting 22 7.2
2020-Feb-22 17:28 198 7 gusting 24 7.2
2020-Feb-22 17:13 232 6 gusting 17 6.7
2020-Feb-22 17:08 228 7 gusting 26 6.7
2020-Feb-22 17:03 252 11 gusting 22 6.7